sensor_id;sensor_type;location;lat;lon;timestamp;temperature;humidity
40454;DHT22;26160;51.858;4.398;2022-12-18T00:02:11;-2.90;99.90
40454;DHT22;26160;51.858;4.398;2022-12-18T00:04:38;-2.90;99.90
40454;DHT22;26160;51.858;4.398;2022-12-18T00:07:04;-3.00;99.90
40454;DHT22;26160;51.858;4.398;2022-12-18T00:09:30;-3.00;99.90
40454;DHT22;26160;51.858;4.398;2022-12-18T00:11:56;-3.00;99.90
40454;DHT22;26160;51.858;4.398;2022-12-18T00:14:22;-3.00;99.90
40454;DHT22;26160;51.858;4.398;2022-12-18T00:16:48;-3.00;99.90
40454;DHT22;26160;51.858;4.398;2022-12-18T00:19:14;-3.00;99.90
40454;DHT22;26160;51.858;4.398;2022-12-18T00:21:41;-3.10;99.90
40454;DHT22;26160;51.858;4.398;2022-12-18T00:24:09;-3.10;99.90
40454;DHT22;26160;51.858;4.398;2022-12-18T00:26:36;-3.10;99.90
40454;DHT22;26160;51.858;4.398;2022-12-18T00:29:09;-3.10;99.90
40454;DHT22;26160;51.858;4.398;2022-12-18T00:31:36;-3.10;99.90
40454;DHT22;26160;51.858;4.398;2022-12-18T00:34:03;-3.20;99.90
40454;DHT22;26160;51.858;4.398;2022-12-18T00:36:32;-3.20;99.90
40454;DHT22;26160;51.858;4.398;2022-12-18T00:39:00;-3.20;99.90
40454;DHT22;26160;51.858;4.398;2022-12-18T00:41:27;-3.20;99.90
40454;DHT22;26160;51.858;4.398;2022-12-18T00:44:14;-3.30;99.90
40454;DHT22;26160;51.858;4.398;2022-12-18T00:46:40;-3.30;99.90
40454;DHT22;26160;51.858;4.398;2022-12-18T00:49:07;-3.40;99.90
40454;DHT22;26160;51.858;4.398;2022-12-18T00:51:33;-3.40;99.90
40454;DHT22;26160;51.858;4.398;2022-12-18T00:53:59;-3.30;99.90
40454;DHT22;26160;51.858;4.398;2022-12-18T00:56:25;-3.30;99.90
40454;DHT22;26160;51.858;4.398;2022-12-18T00:58:51;-3.40;99.90
40454;DHT22;26160;51.858;4.398;2022-12-18T01:01:18;-3.50;99.90
40454;DHT22;26160;51.858;4.398;2022-12-18T01:03:44;-3.50;99.90
40454;DHT22;26160;51.858;4.398;2022-12-18T01:06:14;-3.50;99.90
40454;DHT22;26160;51.858;4.398;2022-12-18T01:08:41;-3.50;99.90
40454;DHT22;26160;51.858;4.398;2022-12-18T01:11:13;-3.40;99.90
40454;DHT22;26160;51.858;4.398;2022-12-18T01:13:39;-3.40;99.90
40454;DHT22;26160;51.858;4.398;2022-12-18T01:16:06;-3.40;99.90
40454;DHT22;26160;51.858;4.398;2022-12-18T01:18:32;-3.40;99.90
40454;DHT22;26160;51.858;4.398;2022-12-18T01:20:58;-3.40;99.90
40454;DHT22;26160;51.858;4.398;2022-12-18T01:23:27;-3.40;99.90
40454;DHT22;26160;51.858;4.398;2022-12-18T01:25:53;-3.40;99.90
40454;DHT22;26160;51.858;4.398;2022-12-18T01:28:20;-3.50;99.90
40454;DHT22;26160;51.858;4.398;2022-12-18T01:30:46;-3.50;99.90
40454;DHT22;26160;51.858;4.398;2022-12-18T01:33:12;-3.50;99.90
40454;DHT22;26160;51.858;4.398;2022-12-18T01:35:44;-3.50;99.90
40454;DHT22;26160;51.858;4.398;2022-12-18T01:38:10;-3.50;99.90
40454;DHT22;26160;51.858;4.398;2022-12-18T01:40:36;-3.50;99.90
40454;DHT22;26160;51.858;4.398;2022-12-18T01:43:02;-3.50;99.90
40454;DHT22;26160;51.858;4.398;2022-12-18T01:45:31;-3.50;99.90
40454;DHT22;26160;51.858;4.398;2022-12-18T01:48:06;-3.50;99.90
40454;DHT22;26160;51.858;4.398;2022-12-18T01:50:42;-3.50;99.90
40454;DHT22;26160;51.858;4.398;2022-12-18T01:53:14;-3.60;99.90
40454;DHT22;26160;51.858;4.398;2022-12-18T01:55:47;-3.60;99.90
40454;DHT22;26160;51.858;4.398;2022-12-18T01:58:14;-3.60;99.90
40454;DHT22;26160;51.858;4.398;2022-12-18T02:03:16;-3.60;99.90
40454;DHT22;26160;51.858;4.398;2022-12-18T02:05:55;-3.50;99.90
40454;DHT22;26160;51.858;4.398;2022-12-18T02:08:36;-3.60;99.90
40454;DHT22;26160;51.858;4.398;2022-12-18T02:14:14;-3.50;99.90
40454;DHT22;26160;51.858;4.398;2022-12-18T02:22:28;-3.60;99.90
40454;DHT22;26160;51.858;4.398;2022-12-18T02:27:54;-3.60;99.90
40454;DHT22;26160;51.858;4.398;2022-12-18T02:30:22;-3.60;99.90
40454;DHT22;26160;51.858;4.398;2022-12-18T02:32:53;-3.70;99.90
40454;DHT22;26160;51.858;4.398;2022-12-18T02:35:26;-3.70;99.90
40454;DHT22;26160;51.858;4.398;2022-12-18T02:37:57;-3.80;99.90
40454;DHT22;26160;51.858;4.398;2022-12-18T02:40:26;-3.90;99.90
40454;DHT22;26160;51.858;4.398;2022-12-18T02:42:53;-4.00;99.90
40454;DHT22;26160;51.858;4.398;2022-12-18T02:45:19;-4.00;99.90
40454;DHT22;26160;51.858;4.398;2022-12-18T02:47:48;-4.10;99.90
40454;DHT22;26160;51.858;4.398;2022-12-18T02:50:36;-4.20;99.90
40454;DHT22;26160;51.858;4.398;2022-12-18T02:58:20;-4.40;99.90
40454;DHT22;26160;51.858;4.398;2022-12-18T03:01:15;-4.40;99.90
40454;DHT22;26160;51.858;4.398;2022-12-18T03:03:51;-4.40;99.90
40454;DHT22;26160;51.858;4.398;2022-12-18T03:08:56;-4.40;99.90
40454;DHT22;26160;51.858;4.398;2022-12-18T03:11:24;-4.40;99.90
40454;DHT22;26160;51.858;4.398;2022-12-18T03:14:13;-4.40;99.90
40454;DHT22;26160;51.858;4.398;2022-12-18T03:16:42;-4.40;99.90
40454;DHT22;26160;51.858;4.398;2022-12-18T03:19:16;-4.40;99.90
40454;DHT22;26160;51.858;4.398;2022-12-18T03:21:47;-4.40;99.90
40454;DHT22;26160;51.858;4.398;2022-12-18T03:24:14;-4.40;99.90
40454;DHT22;26160;51.858;4.398;2022-12-18T03:26:43;-4.40;99.90
40454;DHT22;26160;51.858;4.398;2022-12-18T03:29:19;-4.50;99.90
40454;DHT22;26160;51.858;4.398;2022-12-18T03:31:51;-4.50;99.90
40454;DHT22;26160;51.858;4.398;2022-12-18T03:34:30;-4.60;99.90
40454;DHT22;26160;51.858;4.398;2022-12-18T03:36:57;-4.60;99.90
40454;DHT22;26160;51.858;4.398;2022-12-18T03:39:24;-4.60;99.90
40454;DHT22;26160;51.858;4.398;2022-12-18T03:42:06;-4.60;99.90
40454;DHT22;26160;51.858;4.398;2022-12-18T03:44:44;-4.60;99.90
40454;DHT22;26160;51.858;4.398;2022-12-18T03:47:27;-4.60;99.90
40454;DHT22;26160;51.858;4.398;2022-12-18T03:52:26;-4.70;99.90
40454;DHT22;26160;51.858;4.398;2022-12-18T03:54:53;-4.70;99.90
40454;DHT22;26160;51.858;4.398;2022-12-18T03:57:23;-4.70;99.90
40454;DHT22;26160;51.858;4.398;2022-12-18T03:59:54;-4.70;99.90
40454;DHT22;26160;51.858;4.398;2022-12-18T04:02:24;-4.90;99.90
40454;DHT22;26160;51.858;4.398;2022-12-18T04:04:53;-4.90;99.90
40454;DHT22;26160;51.858;4.398;2022-12-18T04:07:21;-4.90;99.90
40454;DHT22;26160;51.858;4.398;2022-12-18T04:09:49;-5.00;99.90
40454;DHT22;26160;51.858;4.398;2022-12-18T04:12:16;-5.10;99.90
40454;DHT22;26160;51.858;4.398;2022-12-18T04:14:42;-5.20;99.90
40454;DHT22;26160;51.858;4.398;2022-12-18T04:17:08;-5.20;99.90
40454;DHT22;26160;51.858;4.398;2022-12-18T04:19:34;-5.20;99.90
40454;DHT22;26160;51.858;4.398;2022-12-18T04:22:00;-5.20;99.90
40454;DHT22;26160;51.858;4.398;2022-12-18T04:24:26;-5.20;99.90
40454;DHT22;26160;51.858;4.398;2022-12-18T04:26:53;-5.20;99.90
40454;DHT22;26160;51.858;4.398;2022-12-18T04:29:19;-5.20;99.90
40454;DHT22;26160;51.858;4.398;2022-12-18T04:31:45;-5.20;99.90
40454;DHT22;26160;51.858;4.398;2022-12-18T04:34:12;-5.20;99.90
40454;DHT22;26160;51.858;4.398;2022-12-18T04:36:38;-5.20;99.90
40454;DHT22;26160;51.858;4.398;2022-12-18T04:39:04;-5.30;99.90
40454;DHT22;26160;51.858;4.398;2022-12-18T04:41:30;-5.20;99.90
40454;DHT22;26160;51.858;4.398;2022-12-18T04:43:56;-5.30;99.90
40454;DHT22;26160;51.858;4.398;2022-12-18T04:46:22;-5.40;99.90
40454;DHT22;26160;51.858;4.398;2022-12-18T04:48:48;-5.40;99.90
40454;DHT22;26160;51.858;4.398;2022-12-18T04:51:15;-5.50;99.90
40454;DHT22;26160;51.858;4.398;2022-12-18T04:53:41;-5.60;99.90
40454;DHT22;26160;51.858;4.398;2022-12-18T04:56:10;-5.60;99.90
40454;DHT22;26160;51.858;4.398;2022-12-18T04:58:37;-5.60;99.90
40454;DHT22;26160;51.858;4.398;2022-12-18T05:01:04;-5.60;99.90
40454;DHT22;26160;51.858;4.398;2022-12-18T05:03:31;-5.60;99.90
40454;DHT22;26160;51.858;4.398;2022-12-18T05:05:57;-5.60;99.90
40454;DHT22;26160;51.858;4.398;2022-12-18T05:08:23;-5.60;99.90
40454;DHT22;26160;51.858;4.398;2022-12-18T05:10:49;-5.50;99.90
40454;DHT22;26160;51.858;4.398;2022-12-18T05:13:16;-5.50;99.90
40454;DHT22;26160;51.858;4.398;2022-12-18T05:15:42;-5.60;99.90
40454;DHT22;26160;51.858;4.398;2022-12-18T05:18:08;-5.70;99.90
40454;DHT22;26160;51.858;4.398;2022-12-18T05:20:34;-5.70;99.90
40454;DHT22;26160;51.858;4.398;2022-12-18T05:23:00;-5.70;99.90
40454;DHT22;26160;51.858;4.398;2022-12-18T05:25:26;-5.80;99.90
40454;DHT22;26160;51.858;4.398;2022-12-18T05:27:52;-5.80;99.90
40454;DHT22;26160;51.858;4.398;2022-12-18T05:30:18;-5.80;99.90
40454;DHT22;26160;51.858;4.398;2022-12-18T05:32:44;-5.70;99.90
40454;DHT22;26160;51.858;4.398;2022-12-18T05:35:11;-5.70;99.90
40454;DHT22;26160;51.858;4.398;2022-12-18T05:37:37;-5.70;99.90
40454;DHT22;26160;51.858;4.398;2022-12-18T05:40:04;-5.80;99.90
40454;DHT22;26160;51.858;4.398;2022-12-18T05:42:30;-5.80;99.90
40454;DHT22;26160;51.858;4.398;2022-12-18T05:44:56;-5.80;99.90
40454;DHT22;26160;51.858;4.398;2022-12-18T05:47:22;-5.80;99.90
40454;DHT22;26160;51.858;4.398;2022-12-18T05:49:49;-5.80;99.90
40454;DHT22;26160;51.858;4.398;2022-12-18T05:52:15;-5.80;99.90
40454;DHT22;26160;51.858;4.398;2022-12-18T05:54:41;-5.70;99.90
40454;DHT22;26160;51.858;4.398;2022-12-18T05:57:07;-5.80;99.90
40454;DHT22;26160;51.858;4.398;2022-12-18T05:59:33;-5.90;99.90
40454;DHT22;26160;51.858;4.398;2022-12-18T06:01:59;-5.90;99.90
40454;DHT22;26160;51.858;4.398;2022-12-18T06:04:27;-6.00;99.90
40454;DHT22;26160;51.858;4.398;2022-12-18T06:06:54;-6.00;99.90
40454;DHT22;26160;51.858;4.398;2022-12-18T06:09:20;-6.10;99.90
40454;DHT22;26160;51.858;4.398;2022-12-18T06:11:46;-6.10;99.90
40454;DHT22;26160;51.858;4.398;2022-12-18T06:14:12;-6.10;99.90
40454;DHT22;26160;51.858;4.398;2022-12-18T06:16:38;-6.10;99.90
40454;DHT22;26160;51.858;4.398;2022-12-18T06:19:05;-6.10;99.90
40454;DHT22;26160;51.858;4.398;2022-12-18T06:21:32;-6.10;99.90
40454;DHT22;26160;51.858;4.398;2022-12-18T06:23:58;-6.10;99.90
40454;DHT22;26160;51.858;4.398;2022-12-18T06:26:25;-6.10;99.90
40454;DHT22;26160;51.858;4.398;2022-12-18T06:28:51;-6.10;99.90
40454;DHT22;26160;51.858;4.398;2022-12-18T06:31:17;-6.00;99.90
40454;DHT22;26160;51.858;4.398;2022-12-18T06:33:43;-5.90;99.90
40454;DHT22;26160;51.858;4.398;2022-12-18T06:36:11;-6.00;99.90
40454;DHT22;26160;51.858;4.398;2022-12-18T06:38:40;-6.00;99.90
40454;DHT22;26160;51.858;4.398;2022-12-18T06:41:08;-5.90;99.90
40454;DHT22;26160;51.858;4.398;2022-12-18T06:43:34;-6.00;99.90
40454;DHT22;26160;51.858;4.398;2022-12-18T06:46:01;-5.90;99.90
40454;DHT22;26160;51.858;4.398;2022-12-18T06:48:27;-5.90;99.90
40454;DHT22;26160;51.858;4.398;2022-12-18T06:50:54;-5.70;99.90
40454;DHT22;26160;51.858;4.398;2022-12-18T06:53:20;-5.60;99.90
40454;DHT22;26160;51.858;4.398;2022-12-18T06:55:46;-5.60;99.90
40454;DHT22;26160;51.858;4.398;2022-12-18T06:58:12;-5.60;99.90
40454;DHT22;26160;51.858;4.398;2022-12-18T07:00:38;-5.50;99.90
40454;DHT22;26160;51.858;4.398;2022-12-18T07:03:04;-5.60;99.90
40454;DHT22;26160;51.858;4.398;2022-12-18T07:05:30;-5.60;99.90
40454;DHT22;26160;51.858;4.398;2022-12-18T07:07:57;-5.60;99.90
40454;DHT22;26160;51.858;4.398;2022-12-18T07:10:24;-5.60;99.90
40454;DHT22;26160;51.858;4.398;2022-12-18T07:12:50;-5.50;99.90
40454;DHT22;26160;51.858;4.398;2022-12-18T07:15:16;-5.40;99.90
40454;DHT22;26160;51.858;4.398;2022-12-18T07:17:42;-5.40;99.90
40454;DHT22;26160;51.858;4.398;2022-12-18T07:20:09;-5.30;99.90
40454;DHT22;26160;51.858;4.398;2022-12-18T07:22:35;-5.30;99.90
40454;DHT22;26160;51.858;4.398;2022-12-18T07:25:01;-5.20;99.90
40454;DHT22;26160;51.858;4.398;2022-12-18T07:27:27;-5.20;99.90
40454;DHT22;26160;51.858;4.398;2022-12-18T07:29:54;-5.20;99.90
40454;DHT22;26160;51.858;4.398;2022-12-18T07:32:20;-5.10;99.90
40454;DHT22;26160;51.858;4.398;2022-12-18T07:34:47;-5.10;99.90
40454;DHT22;26160;51.858;4.398;2022-12-18T07:37:13;-5.00;99.90
40454;DHT22;26160;51.858;4.398;2022-12-18T07:39:39;-5.00;99.90
40454;DHT22;26160;51.858;4.398;2022-12-18T07:42:08;-4.90;99.90
40454;DHT22;26160;51.858;4.398;2022-12-18T07:44:52;-4.90;99.90
40454;DHT22;26160;51.858;4.398;2022-12-18T07:47:18;-4.90;99.90
40454;DHT22;26160;51.858;4.398;2022-12-18T07:49:45;-4.90;99.90
40454;DHT22;26160;51.858;4.398;2022-12-18T07:52:11;-4.90;99.90
40454;DHT22;26160;51.858;4.398;2022-12-18T07:54:38;-5.00;99.90
40454;DHT22;26160;51.858;4.398;2022-12-18T07:57:04;-5.00;99.90
40454;DHT22;26160;51.858;4.398;2022-12-18T07:59:30;-5.00;99.90
40454;DHT22;26160;51.858;4.398;2022-12-18T08:01:57;-5.00;99.90
40454;DHT22;26160;51.858;4.398;2022-12-18T08:04:23;-5.00;99.90
40454;DHT22;26160;51.858;4.398;2022-12-18T08:06:49;-5.00;99.90
40454;DHT22;26160;51.858;4.398;2022-12-18T08:09:15;-5.00;99.90
40454;DHT22;26160;51.858;4.398;2022-12-18T08:11:42;-4.90;99.90
40454;DHT22;26160;51.858;4.398;2022-12-18T08:14:08;-4.90;99.90
40454;DHT22;26160;51.858;4.398;2022-12-18T08:16:35;-4.90;99.90
40454;DHT22;26160;51.858;4.398;2022-12-18T08:19:01;-4.90;99.90
40454;DHT22;26160;51.858;4.398;2022-12-18T08:21:29;-4.90;99.90
40454;DHT22;26160;51.858;4.398;2022-12-18T08:23:58;-4.80;99.90
40454;DHT22;26160;51.858;4.398;2022-12-18T08:26:26;-4.80;99.90
40454;DHT22;26160;51.858;4.398;2022-12-18T08:28:54;-4.80;99.90
40454;DHT22;26160;51.858;4.398;2022-12-18T08:31:21;-4.70;99.90
40454;DHT22;26160;51.858;4.398;2022-12-18T08:33:51;-4.70;99.90
40454;DHT22;26160;51.858;4.398;2022-12-18T08:36:21;-4.60;99.90
40454;DHT22;26160;51.858;4.398;2022-12-18T08:38:48;-4.50;99.90
40454;DHT22;26160;51.858;4.398;2022-12-18T08:41:16;-4.50;99.90
40454;DHT22;26160;51.858;4.398;2022-12-18T08:43:42;-4.50;99.90
40454;DHT22;26160;51.858;4.398;2022-12-18T08:46:32;-4.40;99.90
40454;DHT22;26160;51.858;4.398;2022-12-18T08:48:59;-4.30;99.90
40454;DHT22;26160;51.858;4.398;2022-12-18T08:51:25;-4.30;99.90
40454;DHT22;26160;51.858;4.398;2022-12-18T08:53:52;-4.30;99.90
40454;DHT22;26160;51.858;4.398;2022-12-18T08:56:18;-4.30;99.90
40454;DHT22;26160;51.858;4.398;2022-12-18T08:58:44;-4.20;99.90
40454;DHT22;26160;51.858;4.398;2022-12-18T09:01:12;-4.20;99.90
40454;DHT22;26160;51.858;4.398;2022-12-18T09:03:39;-4.20;99.90
40454;DHT22;26160;51.858;4.398;2022-12-18T09:06:06;-4.10;99.90
40454;DHT22;26160;51.858;4.398;2022-12-18T09:08:32;-4.10;99.90
40454;DHT22;26160;51.858;4.398;2022-12-18T09:11:00;-4.10;99.90
40454;DHT22;26160;51.858;4.398;2022-12-18T09:13:26;-4.00;99.90
40454;DHT22;26160;51.858;4.398;2022-12-18T09:15:53;-4.00;99.90
40454;DHT22;26160;51.858;4.398;2022-12-18T09:18:21;-4.00;99.90
40454;DHT22;26160;51.858;4.398;2022-12-18T09:20:48;-3.90;99.90
40454;DHT22;26160;51.858;4.398;2022-12-18T09:23:16;-3.90;99.90
40454;DHT22;26160;51.858;4.398;2022-12-18T09:25:42;-3.80;99.90
40454;DHT22;26160;51.858;4.398;2022-12-18T09:28:14;-3.80;99.90
40454;DHT22;26160;51.858;4.398;2022-12-18T09:30:43;-3.70;99.90
40454;DHT22;26160;51.858;4.398;2022-12-18T09:33:10;-3.60;99.90
40454;DHT22;26160;51.858;4.398;2022-12-18T09:35:37;-3.60;99.90
40454;DHT22;26160;51.858;4.398;2022-12-18T09:38:04;-3.50;99.90
40454;DHT22;26160;51.858;4.398;2022-12-18T09:40:43;-3.50;99.90
40454;DHT22;26160;51.858;4.398;2022-12-18T09:43:24;-3.40;99.90
40454;DHT22;26160;51.858;4.398;2022-12-18T09:46:00;-3.40;99.90
40454;DHT22;26160;51.858;4.398;2022-12-18T09:48:40;-3.30;99.90
40454;DHT22;26160;51.858;4.398;2022-12-18T09:51:28;-3.30;99.90
40454;DHT22;26160;51.858;4.398;2022-12-18T09:54:12;-3.20;99.90
40454;DHT22;26160;51.858;4.398;2022-12-18T09:57:06;-3.20;99.90
40454;DHT22;26160;51.858;4.398;2022-12-18T09:59:38;-3.10;99.90
40454;DHT22;26160;51.858;4.398;2022-12-18T10:02:22;-3.00;99.90
40454;DHT22;26160;51.858;4.398;2022-12-18T10:05:02;-2.90;99.90
40454;DHT22;26160;51.858;4.398;2022-12-18T10:15:39;-2.90;99.90
40454;DHT22;26160;51.858;4.398;2022-12-18T10:18:29;-2.80;99.90
40454;DHT22;26160;51.858;4.398;2022-12-18T10:21:12;-2.80;99.90
40454;DHT22;26160;51.858;4.398;2022-12-18T10:23:53;-2.70;99.90
40454;DHT22;26160;51.858;4.398;2022-12-18T10:26:21;-2.70;99.90
40454;DHT22;26160;51.858;4.398;2022-12-18T10:28:47;-2.70;99.90
40454;DHT22;26160;51.858;4.398;2022-12-18T10:31:18;-2.70;99.90
40454;DHT22;26160;51.858;4.398;2022-12-18T10:33:45;-2.50;99.90
40454;DHT22;26160;51.858;4.398;2022-12-18T10:36:11;-2.50;99.90
40454;DHT22;26160;51.858;4.398;2022-12-18T10:38:38;-2.40;99.90
40454;DHT22;26160;51.858;4.398;2022-12-18T10:41:24;-2.40;99.90
40454;DHT22;26160;51.858;4.398;2022-12-18T10:46:46;-2.30;99.90
40454;DHT22;26160;51.858;4.398;2022-12-18T10:51:51;-2.20;99.90
40454;DHT22;26160;51.858;4.398;2022-12-18T10:54:24;-2.20;99.90
40454;DHT22;26160;51.858;4.398;2022-12-18T10:56:51;-2.10;99.90
40454;DHT22;26160;51.858;4.398;2022-12-18T10:59:18;-2.00;99.90
40454;DHT22;26160;51.858;4.398;2022-12-18T11:01:56;-2.00;99.90
40454;DHT22;26160;51.858;4.398;2022-12-18T11:04:28;-1.90;99.90
40454;DHT22;26160;51.858;4.398;2022-12-18T11:07:07;-1.80;99.90
40454;DHT22;26160;51.858;4.398;2022-12-18T11:09:37;-1.90;99.90
40454;DHT22;26160;51.858;4.398;2022-12-18T11:12:04;-1.90;99.90
40454;DHT22;26160;51.858;4.398;2022-12-18T11:14:50;-1.80;99.90
40454;DHT22;26160;51.858;4.398;2022-12-18T11:19:56;-1.70;99.90
40454;DHT22;26160;51.858;4.398;2022-12-18T11:22:30;-1.70;99.90
40454;DHT22;26160;51.858;4.398;2022-12-18T11:27:37;-1.60;99.90
40454;DHT22;26160;51.858;4.398;2022-12-18T11:30:36;-1.60;99.90
40454;DHT22;26160;51.858;4.398;2022-12-18T11:33:06;-1.50;99.90
40454;DHT22;26160;51.858;4.398;2022-12-18T11:38:23;-1.50;99.90
40454;DHT22;26160;51.858;4.398;2022-12-18T11:41:19;-1.50;99.90
40454;DHT22;26160;51.858;4.398;2022-12-18T11:43:59;-1.50;99.90
40454;DHT22;26160;51.858;4.398;2022-12-18T11:46:32;-1.40;99.90
40454;DHT22;26160;51.858;4.398;2022-12-18T11:49:46;-1.40;99.90
40454;DHT22;26160;51.858;4.398;2022-12-18T11:52:14;-1.40;99.90
40454;DHT22;26160;51.858;4.398;2022-12-18T11:54:42;-1.40;99.90
40454;DHT22;26160;51.858;4.398;2022-12-18T12:00:18;-1.30;99.90
40454;DHT22;26160;51.858;4.398;2022-12-18T12:05:43;-1.30;99.90
40454;DHT22;26160;51.858;4.398;2022-12-18T12:08:35;-1.30;99.90
40454;DHT22;26160;51.858;4.398;2022-12-18T12:11:22;-1.30;99.90
40454;DHT22;26160;51.858;4.398;2022-12-18T12:14:07;-1.20;99.90
40454;DHT22;26160;51.858;4.398;2022-12-18T12:16:54;-1.10;99.90
40454;DHT22;26160;51.858;4.398;2022-12-18T12:24:48;-1.20;99.90
40454;DHT22;26160;51.858;4.398;2022-12-18T12:27:40;-1.20;99.90
40454;DHT22;26160;51.858;4.398;2022-12-18T12:30:11;-1.20;99.90
40454;DHT22;26160;51.858;4.398;2022-12-18T12:38:42;-1.20;99.90
40454;DHT22;26160;51.858;4.398;2022-12-18T12:41:17;-1.20;99.90
40454;DHT22;26160;51.858;4.398;2022-12-18T12:44:06;-1.00;99.90
40454;DHT22;26160;51.858;4.398;2022-12-18T12:46:37;-1.10;99.90
40454;DHT22;26160;51.858;4.398;2022-12-18T12:49:13;-1.10;99.90
40454;DHT22;26160;51.858;4.398;2022-12-18T12:51:45;-1.10;99.90
40454;DHT22;26160;51.858;4.398;2022-12-18T12:54:18;-1.00;99.90
40454;DHT22;26160;51.858;4.398;2022-12-18T12:57:09;-1.00;99.90
40454;DHT22;26160;51.858;4.398;2022-12-18T13:00:04;-1.00;99.90
40454;DHT22;26160;51.858;4.398;2022-12-18T13:02:36;-1.00;99.90
40454;DHT22;26160;51.858;4.398;2022-12-18T13:07:57;-0.90;99.90
40454;DHT22;26160;51.858;4.398;2022-12-18T13:10:31;-1.00;99.90
40454;DHT22;26160;51.858;4.398;2022-12-18T13:13:09;-1.00;99.90
40454;DHT22;26160;51.858;4.398;2022-12-18T13:15:44;-1.00;99.90
40454;DHT22;26160;51.858;4.398;2022-12-18T13:18:12;-0.90;99.90
40454;DHT22;26160;51.858;4.398;2022-12-18T13:20:47;-0.90;99.90
40454;DHT22;26160;51.858;4.398;2022-12-18T13:25:54;-0.90;99.90
40454;DHT22;26160;51.858;4.398;2022-12-18T13:30:57;-0.90;99.90
40454;DHT22;26160;51.858;4.398;2022-12-18T13:36:31;-0.90;99.90
40454;DHT22;26160;51.858;4.398;2022-12-18T13:41:51;-0.80;99.90
40454;DHT22;26160;51.858;4.398;2022-12-18T13:46:50;-0.90;99.90
40454;DHT22;26160;51.858;4.398;2022-12-18T13:51:56;-0.80;99.90
40454;DHT22;26160;51.858;4.398;2022-12-18T13:57:00;-0.80;99.90
40454;DHT22;26160;51.858;4.398;2022-12-18T13:59:46;-0.80;99.90
40454;DHT22;26160;51.858;4.398;2022-12-18T14:02:18;-0.80;99.90
40454;DHT22;26160;51.858;4.398;2022-12-18T14:04:47;-0.80;99.90
40454;DHT22;26160;51.858;4.398;2022-12-18T14:07:16;-0.80;99.90
40454;DHT22;26160;51.858;4.398;2022-12-18T14:09:46;-0.80;99.90
40454;DHT22;26160;51.858;4.398;2022-12-18T14:12:30;-0.70;99.90
40454;DHT22;26160;51.858;4.398;2022-12-18T14:15:34;-0.70;99.90
40454;DHT22;26160;51.858;4.398;2022-12-18T14:20:54;-0.70;99.90
40454;DHT22;26160;51.858;4.398;2022-12-18T14:23:47;-0.70;99.90
40454;DHT22;26160;51.858;4.398;2022-12-18T14:26:29;-0.70;99.90
40454;DHT22;26160;51.858;4.398;2022-12-18T14:28:56;-0.70;99.90
40454;DHT22;26160;51.858;4.398;2022-12-18T14:31:25;-0.70;99.90
40454;DHT22;26160;51.858;4.398;2022-12-18T14:33:52;-0.70;99.90
40454;DHT22;26160;51.858;4.398;2022-12-18T14:36:24;-0.70;99.90
40454;DHT22;26160;51.858;4.398;2022-12-18T14:38:55;-0.70;99.90
40454;DHT22;26160;51.858;4.398;2022-12-18T14:41:22;-0.70;99.90
40454;DHT22;26160;51.858;4.398;2022-12-18T14:43:51;-0.70;99.90
40454;DHT22;26160;51.858;4.398;2022-12-18T14:46:34;-0.70;99.90
40454;DHT22;26160;51.858;4.398;2022-12-18T14:49:45;-0.70;99.90
40454;DHT22;26160;51.858;4.398;2022-12-18T14:52:00;-0.70;99.90
40454;DHT22;26160;51.858;4.398;2022-12-18T14:54:27;-0.70;99.90
40454;DHT22;26160;51.858;4.398;2022-12-18T14:57:02;-0.70;99.90
40454;DHT22;26160;51.858;4.398;2022-12-18T14:59:29;-0.70;99.90
40454;DHT22;26160;51.858;4.398;2022-12-18T15:02:14;-0.70;99.90
40454;DHT22;26160;51.858;4.398;2022-12-18T15:04:43;-0.70;99.90
40454;DHT22;26160;51.858;4.398;2022-12-18T15:09:36;-0.60;99.90
40454;DHT22;26160;51.858;4.398;2022-12-18T15:12:02;-0.60;99.90
40454;DHT22;26160;51.858;4.398;2022-12-18T15:14:39;-0.60;99.90
40454;DHT22;26160;51.858;4.398;2022-12-18T15:17:18;-0.60;99.90
40454;DHT22;26160;51.858;4.398;2022-12-18T15:19:46;-0.60;99.90
40454;DHT22;26160;51.858;4.398;2022-12-18T15:22:27;-0.60;99.90
40454;DHT22;26160;51.858;4.398;2022-12-18T15:24:55;-0.50;99.90
40454;DHT22;26160;51.858;4.398;2022-12-18T15:27:32;-0.50;99.90
40454;DHT22;26160;51.858;4.398;2022-12-18T15:30:15;-0.40;99.90
40454;DHT22;26160;51.858;4.398;2022-12-18T15:32:42;-0.40;99.90
40454;DHT22;26160;51.858;4.398;2022-12-18T15:37:35;-0.40;99.90
40454;DHT22;26160;51.858;4.398;2022-12-18T15:40:01;-0.40;99.90
40454;DHT22;26160;51.858;4.398;2022-12-18T15:42:28;-0.40;99.90
40454;DHT22;26160;51.858;4.398;2022-12-18T15:45:13;-0.40;99.90
40454;DHT22;26160;51.858;4.398;2022-12-18T15:47:40;-0.40;99.90
40454;DHT22;26160;51.858;4.398;2022-12-18T15:50:08;-0.40;99.90
40454;DHT22;26160;51.858;4.398;2022-12-18T15:52:40;-0.40;99.90
40454;DHT22;26160;51.858;4.398;2022-12-18T15:55:15;-0.40;99.90
40454;DHT22;26160;51.858;4.398;2022-12-18T15:58:00;-0.40;99.90
40454;DHT22;26160;51.858;4.398;2022-12-18T16:00:26;-0.40;99.90
40454;DHT22;26160;51.858;4.398;2022-12-18T16:02:53;-0.40;99.90
40454;DHT22;26160;51.858;4.398;2022-12-18T16:05:20;-0.30;99.90
40454;DHT22;26160;51.858;4.398;2022-12-18T16:07:47;-0.30;99.90
40454;DHT22;26160;51.858;4.398;2022-12-18T16:10:14;-0.30;99.90
40454;DHT22;26160;51.858;4.398;2022-12-18T16:12:41;-0.30;99.90
40454;DHT22;26160;51.858;4.398;2022-12-18T16:15:07;-0.30;99.90
40454;DHT22;26160;51.858;4.398;2022-12-18T16:17:36;-0.30;99.90
40454;DHT22;26160;51.858;4.398;2022-12-18T16:20:02;-0.30;99.90
40454;DHT22;26160;51.858;4.398;2022-12-18T16:22:30;-0.20;99.90
40454;DHT22;26160;51.858;4.398;2022-12-18T16:24:57;-0.20;99.90
40454;DHT22;26160;51.858;4.398;2022-12-18T16:27:24;-0.20;99.90
40454;DHT22;26160;51.858;4.398;2022-12-18T16:29:51;-0.20;99.90
40454;DHT22;26160;51.858;4.398;2022-12-18T16:32:19;-0.20;99.90
40454;DHT22;26160;51.858;4.398;2022-12-18T16:34:47;-0.20;99.90
40454;DHT22;26160;51.858;4.398;2022-12-18T16:37:14;-0.20;99.90
40454;DHT22;26160;51.858;4.398;2022-12-18T16:39:42;-0.10;99.90
40454;DHT22;26160;51.858;4.398;2022-12-18T16:42:17;-0.10;99.90
40454;DHT22;26160;51.858;4.398;2022-12-18T16:44:46;-0.10;99.90
40454;DHT22;26160;51.858;4.398;2022-12-18T16:47:13;-0.10;99.90
40454;DHT22;26160;51.858;4.398;2022-12-18T16:49:45;0.00;99.90
40454;DHT22;26160;51.858;4.398;2022-12-18T16:52:12;0.00;99.90
40454;DHT22;26160;51.858;4.398;2022-12-18T16:54:38;0.10;99.90
40454;DHT22;26160;51.858;4.398;2022-12-18T16:57:05;0.00;99.90
40454;DHT22;26160;51.858;4.398;2022-12-18T16:59:33;0.10;99.90
40454;DHT22;26160;51.858;4.398;2022-12-18T17:02:00;0.10;99.90
40454;DHT22;26160;51.858;4.398;2022-12-18T17:04:26;0.10;99.90
40454;DHT22;26160;51.858;4.398;2022-12-18T17:06:52;0.20;99.90
40454;DHT22;26160;51.858;4.398;2022-12-18T17:09:19;0.20;99.90
40454;DHT22;26160;51.858;4.398;2022-12-18T17:11:50;0.20;99.90
40454;DHT22;26160;51.858;4.398;2022-12-18T17:14:19;0.20;99.90
40454;DHT22;26160;51.858;4.398;2022-12-18T17:16:47;0.30;99.90
40454;DHT22;26160;51.858;4.398;2022-12-18T17:19:25;0.30;99.90
40454;DHT22;26160;51.858;4.398;2022-12-18T17:21:53;0.30;99.90
40454;DHT22;26160;51.858;4.398;2022-12-18T17:24:19;0.30;99.90
40454;DHT22;26160;51.858;4.398;2022-12-18T17:26:46;0.30;99.90